National Weather Service Raw Text Product

Displaying AFOS PIL: TAFALO Received: 2017-10-13 05:35 UTC


563 
FTUS43 KDMX 130535
TAFALO
TAF
KALO 130535Z 1306/1406 15008KT P6SM BKN018
     FM131000 16005KT 5SM BR BKN025
     FM131100 VRB03KT 3SM BR BKN015
     FM131500 03005KT 5SM BR BKN020
     FM131700 03004KT P6SM BKN021
     FM132000 04006KT P6SM VCSH OVC021
     FM140000 05006KT P6SM OVC020=